createdAt,value
2022-10-30T00:00:09.187Z,41.90
2022-10-30T00:00:19.174Z,41.10
2022-10-30T00:00:29.173Z,40.80
2022-10-30T00:00:39.217Z,39.30
2022-10-30T00:00:49.158Z,39.70
2022-10-30T00:00:59.170Z,39.30
2022-10-30T00:01:09.162Z,40.30
2022-10-30T00:01:19.230Z,41.30
2022-10-30T00:01:29.341Z,41.60
2022-10-30T00:01:39.215Z,41.20
2022-10-30T00:01:49.188Z,39.50
2022-10-30T00:01:59.394Z,38.00
2022-10-30T00:02:09.405Z,38.10
2022-10-30T00:02:19.349Z,38.30
2022-10-30T00:02:29.353Z,38.60
2022-10-30T00:02:40.047Z,37.10
2022-10-30T00:02:49.229Z,37.40
2022-10-30T00:02:59.563Z,38.40
2022-10-30T00:03:09.226Z,41.00
2022-10-30T00:03:19.219Z,41.20
2022-10-30T00:03:29.174Z,40.70
2022-10-30T00:03:39.148Z,38.80
2022-10-30T00:03:49.148Z,38.30
2022-10-30T00:04:00.034Z,38.10
2022-10-30T00:04:09.176Z,37.90
2022-10-30T00:04:19.298Z,37.30
2022-10-30T00:04:29.181Z,37.50
2022-10-30T00:04:39.178Z,37.80
2022-10-30T00:04:49.156Z,38.30
2022-10-30T00:04:59.194Z,38.70
2022-10-30T00:05:12.018Z,38.10
2022-10-30T00:05:19.162Z,39.00
2022-10-30T00:05:29.150Z,38.00
2022-10-30T00:05:39.144Z,38.30
2022-10-30T00:05:49.156Z,37.50
2022-10-30T00:05:59.142Z,37.30
2022-10-30T00:06:10.113Z,38.20
2022-10-30T00:06:19.141Z,37.90
2022-10-30T00:06:29.152Z,38.20
2022-10-30T00:06:39.137Z,37.50
2022-10-30T00:06:49.168Z,37.70
2022-10-30T00:06:59.130Z,37.90
2022-10-30T00:07:09.134Z,38.00
2022-10-30T00:07:19.129Z,38.50
2022-10-30T00:07:29.163Z,38.20
2022-10-30T00:07:39.160Z,37.50
2022-10-30T00:07:49.134Z,36.80
2022-10-30T00:07:59.433Z,36.70
2022-10-30T00:08:09.136Z,36.90
2022-10-30T00:08:20.001Z,37.50
2022-10-30T00:08:30.027Z,37.20
2022-10-30T00:08:39.137Z,37.70
2022-10-30T00:08:49.131Z,37.60
2022-10-30T00:08:59.156Z,37.40
2022-10-30T00:09:09.143Z,38.10
2022-10-30T00:09:19.131Z,38.30
2022-10-30T00:09:29.210Z,39.50
2022-10-30T00:09:39.123Z,38.40
2022-10-30T00:09:49.183Z,38.40
2022-10-30T00:09:59.187Z,38.70
2022-10-30T00:10:09.117Z,39.00
2022-10-30T00:10:19.139Z,38.90
2022-10-30T00:10:29.119Z,37.80
2022-10-30T00:10:39.997Z,37.50
2022-10-30T00:10:49.133Z,36.40
2022-10-30T00:10:59.126Z,35.60
2022-10-30T00:11:09.197Z,36.20
2022-10-30T00:11:20.023Z,36.90
2022-10-30T00:11:29.229Z,38.10
2022-10-30T00:11:39.153Z,37.40
2022-10-30T00:11:49.116Z,37.00
2022-10-30T00:11:59.120Z,36.60
2022-10-30T00:12:16.100Z,35.90
2022-10-30T00:12:20.016Z,36.80
2022-10-30T00:12:29.203Z,37.00
2022-10-30T00:12:39.128Z,37.40
2022-10-30T00:12:49.104Z,36.40
2022-10-30T00:12:59.139Z,35.50
2022-10-30T00:13:09.334Z,35.60
2022-10-30T00:13:19.124Z,36.40
2022-10-30T00:13:29.102Z,36.30
2022-10-30T00:13:39.112Z,36.50
2022-10-30T00:13:49.137Z,35.80
2022-10-30T00:13:59.173Z,36.40
2022-10-30T00:14:09.203Z,36.40
2022-10-30T00:14:19.121Z,36.20
2022-10-30T00:14:30.020Z,35.90
2022-10-30T00:14:39.207Z,36.90
2022-10-30T00:14:49.139Z,37.40
2022-10-30T00:14:59.148Z,37.60
2022-10-30T00:15:09.134Z,35.80
2022-10-30T00:15:19.123Z,36.50
2022-10-30T00:15:29.118Z,36.70
2022-10-30T00:15:39.186Z,36.60
2022-10-30T00:15:49.114Z,37.20
2022-10-30T00:15:59.173Z,37.40
2022-10-30T00:16:10.012Z,38.60
2022-10-30T00:16:19.096Z,37.60
2022-10-30T00:16:29.117Z,36.00
2022-10-30T00:16:39.204Z,35.80
2022-10-30T00:16:49.088Z,35.80
2022-10-30T00:16:59.084Z,37.80
2022-10-30T00:17:09.118Z,37.80
2022-10-30T00:17:19.092Z,36.70
2022-10-30T00:17:29.146Z,36.90
2022-10-30T00:17:39.131Z,36.00
2022-10-30T00:17:49.138Z,36.00
2022-10-30T00:17:59.555Z,34.50
2022-10-30T00:18:09.104Z,34.80
2022-10-30T00:18:19.088Z,36.80
2022-10-30T00:18:32.073Z,38.10
2022-10-30T00:18:40.001Z,38.70
2022-10-30T00:18:49.109Z,36.50
2022-10-30T00:18:59.086Z,36.20
2022-10-30T00:19:09.086Z,35.40
2022-10-30T00:19:19.211Z,36.30
2022-10-30T00:19:29.101Z,36.20
2022-10-30T00:19:39.104Z,36.40
2022-10-30T00:19:49.156Z,36.50
2022-10-30T00:19:59.108Z,37.00
2022-10-30T00:20:09.081Z,37.40
2022-10-30T00:20:19.102Z,37.30
2022-10-30T00:20:29.112Z,35.90
2022-10-30T00:20:40.122Z,35.70
2022-10-30T00:20:52.139Z,35.20
2022-10-30T00:20:59.128Z,36.50
2022-10-30T00:21:09.075Z,36.00
2022-10-30T00:21:19.069Z,36.40
2022-10-30T00:21:29.095Z,36.40
2022-10-30T00:21:39.073Z,36.20
2022-10-30T00:21:49.083Z,36.80
2022-10-30T00:22:16.631Z,0.00
2022-10-30T00:22:25.965Z,35.90
2022-10-30T00:22:35.881Z,37.20
2022-10-30T00:22:45.884Z,37.00
2022-10-30T00:22:56.255Z,36.60
2022-10-30T00:23:05.882Z,35.60
2022-10-30T00:23:15.900Z,36.20
2022-10-30T00:23:25.878Z,36.00
2022-10-30T00:23:35.868Z,37.00
2022-10-30T00:23:45.926Z,36.40
2022-10-30T00:23:55.996Z,37.30
2022-10-30T00:24:05.914Z,35.50
2022-10-30T00:24:15.864Z,35.90
2022-10-30T00:24:26.630Z,34.90
2022-10-30T00:24:35.879Z,35.80
2022-10-30T00:24:45.880Z,35.10
2022-10-30T00:24:55.955Z,35.90
2022-10-30T00:25:05.887Z,35.50
2022-10-30T00:25:15.867Z,36.10
2022-10-30T00:25:25.870Z,35.90
2022-10-30T00:25:35.903Z,35.50
2022-10-30T00:25:45.888Z,35.40
2022-10-30T00:25:55.864Z,34.50
2022-10-30T00:26:05.889Z,34.20
2022-10-30T00:26:15.867Z,33.70
2022-10-30T00:26:25.896Z,34.60
2022-10-30T00:26:35.931Z,35.60
2022-10-30T00:26:45.904Z,35.80
2022-10-30T00:26:55.889Z,35.80
2022-10-30T00:27:05.877Z,36.00
2022-10-30T00:27:15.866Z,35.50
2022-10-30T00:27:25.862Z,35.50
2022-10-30T00:27:35.869Z,35.00
2022-10-30T00:27:45.878Z,36.00
2022-10-30T00:27:55.854Z,35.50
2022-10-30T00:28:06.014Z,35.30
2022-10-30T00:28:15.852Z,34.20
2022-10-30T00:28:26.637Z,35.00
2022-10-30T00:28:36.628Z,35.20
2022-10-30T00:28:45.875Z,36.70
2022-10-30T00:28:55.868Z,37.50
2022-10-30T00:29:05.855Z,38.30
2022-10-30T00:29:15.847Z,37.00
2022-10-30T00:29:25.848Z,36.10
2022-10-30T00:29:35.843Z,35.30
2022-10-30T00:29:45.850Z,35.30
2022-10-30T00:29:55.841Z,34.80
2022-10-30T00:30:05.954Z,35.70
2022-10-30T00:30:15.855Z,35.30
2022-10-30T00:30:25.855Z,35.70
2022-10-30T00:30:35.902Z,35.00
2022-10-30T00:30:45.918Z,36.20
2022-10-30T00:30:55.848Z,36.70
2022-10-30T00:31:06.667Z,36.30
2022-10-30T00:31:15.867Z,35.50
2022-10-30T00:31:25.849Z,34.80
2022-10-30T00:31:35.837Z,36.20
2022-10-30T00:31:45.852Z,36.50
2022-10-30T00:31:55.832Z,35.50
2022-10-30T00:32:05.862Z,34.10
2022-10-30T00:32:15.940Z,33.50
2022-10-30T00:32:25.835Z,33.30
2022-10-30T00:32:35.862Z,33.60
2022-10-30T00:32:46.680Z,34.50
2022-10-30T00:32:56.221Z,35.40
2022-10-30T00:33:06.657Z,35.80
2022-10-30T00:33:15.834Z,34.70
2022-10-30T00:33:25.830Z,34.60
2022-10-30T00:33:35.848Z,33.90
2022-10-30T00:33:45.841Z,34.20
2022-10-30T00:33:55.823Z,35.10
2022-10-30T00:34:06.051Z,34.80
2022-10-30T00:34:15.834Z,34.90
2022-10-30T00:34:25.825Z,34.20
2022-10-30T00:34:38.634Z,33.80
2022-10-30T00:34:45.824Z,33.40
2022-10-30T00:34:55.931Z,32.80
2022-10-30T00:35:05.843Z,33.00
2022-10-30T00:35:15.870Z,32.90
2022-10-30T00:35:25.825Z,33.60
2022-10-30T00:35:35.887Z,33.40
2022-10-30T00:35:55.835Z,35.20
2022-10-30T00:36:05.826Z,36.80
2022-10-30T00:36:15.850Z,34.90
2022-10-30T00:36:25.820Z,35.40
2022-10-30T00:36:35.965Z,35.10
2022-10-30T00:36:45.823Z,34.70
2022-10-30T00:36:56.685Z,33.80
2022-10-30T00:37:05.824Z,32.40
2022-10-30T00:37:15.831Z,34.00
2022-10-30T00:37:25.853Z,33.90
2022-10-30T00:37:35.835Z,34.00
2022-10-30T00:37:45.807Z,33.00
2022-10-30T00:37:56.094Z,33.80
2022-10-30T00:38:05.829Z,33.20
2022-10-30T00:38:15.823Z,33.60
2022-10-30T00:38:25.818Z,33.60
2022-10-30T00:38:35.896Z,35.50
2022-10-30T00:38:45.817Z,34.00
2022-10-30T00:38:55.853Z,34.10
2022-10-30T00:39:05.935Z,33.80
2022-10-30T00:39:15.859Z,35.50
2022-10-30T00:39:26.629Z,36.40
2022-10-30T00:39:35.808Z,35.50
2022-10-30T00:39:45.814Z,34.00
2022-10-30T00:39:55.810Z,32.70
2022-10-30T00:40:05.806Z,33.90
2022-10-30T00:40:18.644Z,34.40
2022-10-30T00:40:25.852Z,34.80
2022-10-30T00:40:35.803Z,33.60
2022-10-30T00:40:45.844Z,34.00
2022-10-30T00:40:55.809Z,33.50
2022-10-30T00:41:05.946Z,33.60
2022-10-30T00:41:15.812Z,33.40
2022-10-30T00:41:25.800Z,33.80
2022-10-30T00:41:35.804Z,33.90
2022-10-30T00:41:45.788Z,33.50
2022-10-30T00:41:55.799Z,33.70
2022-10-30T00:42:05.798Z,34.50
2022-10-30T00:42:15.794Z,35.10
2022-10-30T00:42:25.827Z,35.20
2022-10-30T00:42:35.799Z,34.60
2022-10-30T00:42:46.681Z,34.90
2022-10-30T00:42:55.805Z,33.80
2022-10-30T00:43:05.823Z,34.10
2022-10-30T00:43:15.900Z,33.40
2022-10-30T00:43:25.987Z,35.00
2022-10-30T00:43:35.793Z,34.50
2022-10-30T00:43:45.798Z,34.40
2022-10-30T00:43:55.795Z,33.80
2022-10-30T00:44:05.788Z,33.80
2022-10-30T00:44:15.783Z,33.50
2022-10-30T00:44:25.793Z,32.70
2022-10-30T00:44:35.780Z,32.20
2022-10-30T00:44:45.781Z,33.20
2022-10-30T00:44:55.799Z,34.50
2022-10-30T00:45:05.794Z,35.20
2022-10-30T00:45:16.639Z,34.10
2022-10-30T00:45:25.810Z,33.70
2022-10-30T00:45:35.816Z,34.60
2022-10-30T00:45:45.779Z,35.10
2022-10-30T00:45:55.782Z,35.00
2022-10-30T00:46:05.784Z,34.00
2022-10-30T00:46:15.774Z,34.40
2022-10-30T00:46:25.804Z,34.70
2022-10-30T00:46:35.786Z,34.60
2022-10-30T00:46:45.779Z,33.30
2022-10-30T00:46:55.802Z,33.40
2022-10-30T00:47:05.779Z,33.80
2022-10-30T00:47:15.825Z,34.70
2022-10-30T00:47:25.886Z,34.80
2022-10-30T00:47:35.788Z,34.80
2022-10-30T00:47:45.899Z,35.20
2022-10-30T00:47:56.334Z,34.60
2022-10-30T00:48:05.770Z,34.60
2022-10-30T00:48:15.796Z,34.20
2022-10-30T00:48:25.760Z,34.50
2022-10-30T00:48:35.776Z,34.20
2022-10-30T00:48:45.770Z,34.30
2022-10-30T00:48:55.788Z,33.70
2022-10-30T00:49:05.776Z,33.10
2022-10-30T00:49:15.812Z,32.20
2022-10-30T00:49:25.810Z,31.90
2022-10-30T00:49:35.763Z,32.60
2022-10-30T00:49:45.769Z,33.50
2022-10-30T00:49:55.766Z,34.90
2022-10-30T00:50:05.772Z,35.50
2022-10-30T00:50:15.866Z,35.00
2022-10-30T00:50:35.790Z,33.40
2022-10-30T00:50:45.812Z,33.80
2022-10-30T00:50:56.669Z,33.50
2022-10-30T00:51:05.763Z,34.50
2022-10-30T00:51:15.770Z,35.10
2022-10-30T00:51:25.750Z,35.50
2022-10-30T00:51:35.865Z,34.90
2022-10-30T00:51:45.759Z,33.30
2022-10-30T00:51:55.762Z,33.00
2022-10-30T00:52:05.753Z,33.10
2022-10-30T00:52:15.762Z,32.90
2022-10-30T00:52:25.743Z,32.30
2022-10-30T00:52:35.781Z,31.80
2022-10-30T00:52:45.800Z,33.20
2022-10-30T00:52:57.042Z,32.90
2022-10-30T00:53:05.774Z,32.90
2022-10-30T00:53:15.750Z,31.80
2022-10-30T00:53:25.758Z,31.50
2022-10-30T00:53:36.673Z,31.30
2022-10-30T00:53:45.737Z,32.10
2022-10-30T00:53:55.768Z,32.80
2022-10-30T00:54:05.738Z,33.00
2022-10-30T00:54:15.745Z,33.10
2022-10-30T00:54:25.762Z,32.80
2022-10-30T00:54:35.744Z,32.80
2022-10-30T00:54:45.801Z,32.30
2022-10-30T00:54:56.652Z,33.00
2022-10-30T00:55:05.805Z,33.10
2022-10-30T00:55:15.741Z,34.50
2022-10-30T00:55:25.765Z,34.50
2022-10-30T00:55:35.764Z,34.10
2022-10-30T00:55:45.734Z,32.50
2022-10-30T00:55:55.785Z,32.10
2022-10-30T00:56:05.751Z,31.60
2022-10-30T00:56:15.743Z,31.40
2022-10-30T00:56:25.759Z,30.80
2022-10-30T00:56:35.740Z,31.70
2022-10-30T00:56:45.742Z,31.50
2022-10-30T00:56:55.729Z,32.40
2022-10-30T00:57:05.725Z,32.90
2022-10-30T00:57:15.733Z,33.10
2022-10-30T00:57:26.696Z,32.30
2022-10-30T00:57:35.726Z,31.90
2022-10-30T00:57:45.755Z,32.70
2022-10-30T00:57:55.725Z,32.90
2022-10-30T00:58:05.723Z,32.70
2022-10-30T00:58:15.726Z,33.20
2022-10-30T00:58:25.723Z,33.40
2022-10-30T00:58:35.726Z,34.00
2022-10-30T00:58:45.762Z,33.20
2022-10-30T00:58:56.644Z,32.70
2022-10-30T00:59:05.717Z,32.50
2022-10-30T00:59:15.764Z,31.80
2022-10-30T00:59:25.724Z,32.60
2022-10-30T00:59:35.848Z,32.20
2022-10-30T00:59:45.728Z,34.20
2022-10-30T00:59:55.816Z,34.50
2022-10-30T01:00:05.720Z,34.90
2022-10-30T01:00:15.720Z,33.50
2022-10-30T01:00:25.709Z,33.00
2022-10-30T01:00:35.774Z,32.50
2022-10-30T01:00:45.711Z,31.50
2022-10-30T01:00:55.779Z,30.90
2022-10-30T01:01:05.956Z,31.50
2022-10-30T01:01:15.927Z,32.30
2022-10-30T01:01:25.943Z,33.00
2022-10-30T01:01:38.831Z,32.20
2022-10-30T01:01:45.778Z,32.40
2022-10-30T01:01:55.967Z,32.70
2022-10-30T01:02:05.842Z,32.30
2022-10-30T01:02:15.839Z,32.50
2022-10-30T01:02:25.946Z,32.30
2022-10-30T01:02:35.801Z,32.60
2022-10-30T01:02:45.928Z,32.60
2022-10-30T01:02:56.135Z,31.70
2022-10-30T01:03:05.760Z,32.00
2022-10-30T01:03:15.722Z,32.10
2022-10-30T01:03:25.716Z,31.40
2022-10-30T01:03:35.705Z,31.60
2022-10-30T01:03:45.697Z,31.70
2022-10-30T01:03:56.747Z,32.40
2022-10-30T01:04:06.644Z,32.60
2022-10-30T01:04:15.697Z,31.80
2022-10-30T01:04:29.130Z,32.90
2022-10-30T01:04:35.831Z,33.40
2022-10-30T01:04:46.637Z,34.10
2022-10-30T01:04:55.778Z,33.80
2022-10-30T01:05:05.753Z,33.10
2022-10-30T01:05:15.738Z,32.60
2022-10-30T01:05:25.736Z,31.90
2022-10-30T01:05:35.788Z,32.00
2022-10-30T01:05:45.706Z,31.80
2022-10-30T01:05:55.709Z,31.80
2022-10-30T01:06:06.800Z,31.60
2022-10-30T01:06:16.637Z,31.90
2022-10-30T01:06:25.702Z,32.50
2022-10-30T01:06:35.690Z,31.70
2022-10-30T01:06:45.723Z,31.50
2022-10-30T01:06:55.687Z,30.60
2022-10-30T01:07:05.698Z,30.90
2022-10-30T01:07:15.705Z,31.40
2022-10-30T01:07:25.724Z,32.40
2022-10-30T01:07:35.677Z,33.00
2022-10-30T01:07:45.725Z,32.20
2022-10-30T01:07:56.136Z,32.10
2022-10-30T01:08:05.682Z,31.40
2022-10-30T01:08:15.793Z,31.80
2022-10-30T01:08:25.767Z,31.50
2022-10-30T01:08:36.722Z,31.80
2022-10-30T01:08:46.732Z,32.20
2022-10-30T01:08:58.981Z,33.00
2022-10-30T01:09:05.805Z,33.00
2022-10-30T01:09:15.812Z,32.50
2022-10-30T01:09:25.680Z,32.40
2022-10-30T01:09:35.719Z,32.50
2022-10-30T01:09:45.674Z,32.10
2022-10-30T01:09:55.672Z,30.70
2022-10-30T01:10:05.695Z,29.80
2022-10-30T01:10:16.755Z,30.00
2022-10-30T01:10:25.799Z,30.10
2022-10-30T01:10:35.669Z,30.30
2022-10-30T01:10:45.679Z,30.30
2022-10-30T01:10:55.666Z,31.50
2022-10-30T01:11:06.656Z,32.30
2022-10-30T01:11:15.667Z,33.60
2022-10-30T01:11:25.821Z,32.60
2022-10-30T01:11:35.670Z,32.70
2022-10-30T01:11:45.682Z,32.00
2022-10-30T01:11:55.673Z,31.80
2022-10-30T01:12:05.706Z,31.30
2022-10-30T01:12:15.688Z,31.10
2022-10-30T01:12:26.645Z,30.80
2022-10-30T01:12:35.663Z,31.10
2022-10-30T01:12:45.692Z,30.70
2022-10-30T01:12:55.658Z,31.90
2022-10-30T01:13:05.657Z,31.90
2022-10-30T01:13:15.731Z,32.40
2022-10-30T01:13:25.660Z,31.20
2022-10-30T01:13:35.667Z,30.70
2022-10-30T01:13:45.662Z,29.70
2022-10-30T01:13:55.686Z,30.30
2022-10-30T01:14:05.657Z,30.10
2022-10-30T01:14:15.665Z,30.80
2022-10-30T01:14:25.706Z,31.10
2022-10-30T01:14:36.647Z,31.60
2022-10-30T01:14:45.664Z,33.10
2022-10-30T01:14:55.668Z,33.20
2022-10-30T01:15:05.709Z,33.30
2022-10-30T01:15:15.656Z,32.50
2022-10-30T01:15:25.696Z,32.10
2022-10-30T01:15:35.661Z,31.70
2022-10-30T01:15:45.664Z,31.60
2022-10-30T01:15:55.686Z,32.00
2022-10-30T01:16:05.703Z,32.10
2022-10-30T01:16:15.651Z,31.80
2022-10-30T01:16:26.214Z,30.80
2022-10-30T01:16:35.745Z,31.10
2022-10-30T01:16:45.682Z,30.50
2022-10-30T01:16:55.712Z,31.20
2022-10-30T01:17:05.643Z,30.60
2022-10-30T01:17:15.678Z,30.80
2022-10-30T01:17:25.729Z,31.10
2022-10-30T01:17:35.650Z,30.90
2022-10-30T01:17:45.652Z,30.70
2022-10-30T01:17:56.135Z,30.60
2022-10-30T01:18:05.655Z,32.30
2022-10-30T01:18:15.718Z,32.00
2022-10-30T01:18:25.649Z,31.80
2022-10-30T01:18:35.680Z,30.50
2022-10-30T01:18:45.637Z,30.70
2022-10-30T01:18:55.627Z,30.50
2022-10-30T01:19:05.646Z,30.20
2022-10-30T01:19:15.687Z,31.10
2022-10-30T01:19:25.629Z,30.60
2022-10-30T01:19:35.635Z,32.00
2022-10-30T01:19:45.635Z,30.50
2022-10-30T01:19:55.748Z,31.40
2022-10-30T01:20:05.645Z,29.60
2022-10-30T01:20:15.703Z,30.10
2022-10-30T01:20:25.640Z,30.80
2022-10-30T01:20:35.664Z,32.00
2022-10-30T01:20:45.641Z,32.50
2022-10-30T01:20:55.631Z,32.40
2022-10-30T01:21:05.677Z,31.50
2022-10-30T01:21:15.622Z,31.60
2022-10-30T01:21:25.633Z,31.50
2022-10-30T01:21:35.619Z,31.90
2022-10-30T01:21:45.675Z,32.80
2022-10-30T01:21:55.629Z,32.80
2022-10-30T01:22:06.176Z,31.80
2022-10-30T01:22:16.150Z,30.20
2022-10-30T01:22:25.622Z,30.50
2022-10-30T01:22:35.625Z,31.70
2022-10-30T01:22:45.650Z,32.70
2022-10-30T01:22:56.089Z,31.80
2022-10-30T01:23:05.621Z,32.00
2022-10-30T01:23:15.616Z,31.10
2022-10-30T01:23:25.646Z,30.90
2022-10-30T01:23:35.633Z,31.00
2022-10-30T01:23:45.614Z,31.40
2022-10-30T01:23:55.653Z,31.80
2022-10-30T01:24:05.616Z,31.80
2022-10-30T01:24:15.634Z,31.50
2022-10-30T01:24:25.657Z,31.00
2022-10-30T01:24:35.609Z,31.40
2022-10-30T01:24:46.179Z,31.50
2022-10-30T01:24:55.602Z,31.80
2022-10-30T01:25:05.613Z,30.40
2022-10-30T01:25:15.633Z,30.20
2022-10-30T01:25:25.951Z,29.40
2022-10-30T01:25:35.597Z,30.70
2022-10-30T01:25:45.635Z,31.10
2022-10-30T01:25:55.609Z,31.90
2022-10-30T01:26:05.615Z,31.00
2022-10-30T01:26:16.150Z,30.80
2022-10-30T01:26:25.609Z,31.00
2022-10-30T01:26:35.606Z,31.20
2022-10-30T01:26:45.636Z,31.10
2022-10-30T01:26:55.691Z,30.70
2022-10-30T01:27:05.646Z,31.50
2022-10-30T01:27:15.614Z,33.50
2022-10-30T01:27:26.158Z,32.80
2022-10-30T01:27:35.611Z,31.90
2022-10-30T01:27:45.593Z,29.50
2022-10-30T01:28:10.156Z,30.70
2022-10-30T01:28:10.470Z,30.50
2022-10-30T01:28:20.475Z,30.40
2022-10-30T01:28:30.492Z,30.00
2022-10-30T01:28:41.163Z,30.60
2022-10-30T01:28:50.465Z,30.50
2022-10-30T01:29:00.471Z,31.10
2022-10-30T01:29:10.470Z,31.80
2022-10-30T01:29:21.175Z,31.50
2022-10-30T01:29:30.476Z,30.90
2022-10-30T01:29:40.472Z,29.90
2022-10-30T01:29:50.473Z,30.30
2022-10-30T01:30:00.652Z,30.90
2022-10-30T01:30:10.476Z,31.70
2022-10-30T01:30:20.478Z,31.60
2022-10-30T01:30:31.157Z,31.50
2022-10-30T01:30:40.510Z,30.60
2022-10-30T01:30:50.582Z,31.00
2022-10-30T01:31:00.457Z,31.50
2022-10-30T01:31:10.460Z,31.80
2022-10-30T01:31:20.462Z,33.00
2022-10-30T01:31:30.458Z,32.70
2022-10-30T01:31:40.464Z,33.30
2022-10-30T01:31:50.453Z,31.90
2022-10-30T01:32:00.515Z,31.40
2022-10-30T01:32:17.322Z,31.30
2022-10-30T01:32:20.482Z,31.50
2022-10-30T01:32:30.459Z,32.70
2022-10-30T01:32:40.460Z,31.60
2022-10-30T01:32:51.171Z,32.00
2022-10-30T01:33:00.641Z,31.40
2022-10-30T01:33:10.465Z,31.90
2022-10-30T01:33:20.445Z,31.40
2022-10-30T01:33:30.445Z,31.30
2022-10-30T01:33:40.465Z,31.00
2022-10-30T01:33:50.446Z,31.30
2022-10-30T01:34:00.444Z,31.10
2022-10-30T01:34:10.472Z,31.10
2022-10-30T01:34:20.441Z,32.10
2022-10-30T01:34:30.501Z,33.00
2022-10-30T01:34:40.452Z,33.70
2022-10-30T01:34:50.447Z,32.90
2022-10-30T01:35:00.538Z,32.10
2022-10-30T01:35:10.452Z,32.80
2022-10-30T01:35:20.440Z,33.10
2022-10-30T01:35:30.549Z,32.60
2022-10-30T01:35:40.449Z,31.30
2022-10-30T01:35:50.451Z,30.00
2022-10-30T01:36:00.456Z,30.60
2022-10-30T01:36:10.479Z,31.50
2022-10-30T01:36:20.432Z,33.10
2022-10-30T01:36:30.459Z,33.30
2022-10-30T01:36:40.431Z,33.10
2022-10-30T01:36:50.460Z,32.30
2022-10-30T01:37:01.264Z,32.30
2022-10-30T01:37:10.603Z,32.40
2022-10-30T01:37:20.429Z,31.80
2022-10-30T01:37:30.440Z,32.60
2022-10-30T01:37:40.431Z,32.00
2022-10-30T01:37:50.427Z,33.20
2022-10-30T01:38:00.746Z,32.80
2022-10-30T01:38:10.426Z,32.70
2022-10-30T01:38:20.427Z,31.40
2022-10-30T01:38:30.444Z,30.10
2022-10-30T01:38:40.443Z,30.30
2022-10-30T01:38:50.446Z,31.10
2022-10-30T01:39:01.164Z,32.20
2022-10-30T01:39:10.555Z,32.80
2022-10-30T01:39:20.437Z,32.40
2022-10-30T01:39:30.419Z,32.40
2022-10-30T01:39:40.504Z,31.70
2022-10-30T01:39:50.503Z,31.20
2022-10-30T01:40:00.436Z,30.50
2022-10-30T01:40:10.422Z,30.50
2022-10-30T01:40:20.431Z,31.60
2022-10-30T01:40:30.416Z,32.00
2022-10-30T01:40:40.426Z,31.90
2022-10-30T01:40:50.428Z,30.80
2022-10-30T01:41:00.425Z,30.50
2022-10-30T01:41:11.170Z,31.30
2022-10-30T01:41:20.556Z,31.80
2022-10-30T01:41:30.417Z,32.10
2022-10-30T01:41:40.433Z,31.50
2022-10-30T01:41:50.429Z,32.40
2022-10-30T01:42:00.427Z,31.30
2022-10-30T01:42:10.437Z,31.80
2022-10-30T01:42:20.468Z,31.20
2022-10-30T01:42:30.423Z,32.80
2022-10-30T01:42:40.421Z,32.60
2022-10-30T01:42:50.435Z,32.50
2022-10-30T01:43:00.405Z,32.60
2022-10-30T01:43:11.158Z,33.40
2022-10-30T01:43:20.777Z,33.40
2022-10-30T01:43:30.407Z,32.70
2022-10-30T01:43:40.408Z,32.10
2022-10-30T01:43:50.402Z,32.50
2022-10-30T01:44:00.412Z,33.10
2022-10-30T01:44:10.412Z,32.60
2022-10-30T01:44:20.405Z,32.80
2022-10-30T01:44:30.540Z,33.30
2022-10-30T01:44:40.411Z,32.80
2022-10-30T01:44:50.399Z,33.50
2022-10-30T01:45:00.423Z,33.00
2022-10-30T01:45:10.544Z,33.40
2022-10-30T01:45:21.158Z,32.40
2022-10-30T01:45:30.396Z,32.30
2022-10-30T01:45:40.387Z,32.40
2022-10-30T01:45:50.480Z,32.20
2022-10-30T01:46:00.388Z,32.30
2022-10-30T01:46:10.422Z,32.50
2022-10-30T01:46:20.388Z,32.40
2022-10-30T01:46:31.209Z,33.20
2022-10-30T01:46:40.385Z,32.70
2022-10-30T01:46:50.388Z,32.70
2022-10-30T01:47:00.399Z,31.50
2022-10-30T01:47:10.392Z,31.50
2022-10-30T01:47:21.181Z,30.80
2022-10-30T01:47:30.502Z,31.10
2022-10-30T01:47:40.381Z,31.60
2022-10-30T01:47:50.402Z,32.00
2022-10-30T01:48:00.613Z,32.20
2022-10-30T01:48:10.383Z,31.90
2022-10-30T01:48:20.406Z,32.80
2022-10-30T01:48:30.419Z,32.40
2022-10-30T01:48:41.191Z,33.50
2022-10-30T01:48:50.393Z,32.70
2022-10-30T01:49:00.407Z,32.00
2022-10-30T01:49:10.405Z,32.00
2022-10-30T01:49:21.222Z,31.90
2022-10-30T01:49:33.166Z,33.10
2022-10-30T01:49:40.383Z,32.10
2022-10-30T01:49:50.412Z,32.80
2022-10-30T01:50:00.432Z,32.20
2022-10-30T01:50:10.384Z,33.30
2022-10-30T01:50:20.423Z,33.30
2022-10-30T01:50:30.375Z,33.50
2022-10-30T01:50:40.387Z,32.80
2022-10-30T01:50:50.412Z,33.30
2022-10-30T01:51:00.379Z,32.60
2022-10-30T01:51:10.379Z,33.00
2022-10-30T01:51:20.401Z,32.40
2022-10-30T01:51:31.202Z,32.40
2022-10-30T01:51:40.597Z,32.20
2022-10-30T01:51:50.380Z,31.60
2022-10-30T01:52:00.422Z,32.80
2022-10-30T01:52:10.399Z,33.00
2022-10-30T01:52:20.364Z,32.20
2022-10-30T01:52:30.389Z,32.80
2022-10-30T01:52:40.425Z,31.60
2022-10-30T01:52:50.556Z,32.90
2022-10-30T01:53:00.514Z,31.60
2022-10-30T01:53:10.378Z,32.60
2022-10-30T01:53:20.370Z,32.50
2022-10-30T01:53:30.390Z,32.30
2022-10-30T01:53:40.469Z,30.90
2022-10-30T01:53:50.360Z,31.50
2022-10-30T01:54:00.381Z,30.70
2022-10-30T01:54:11.152Z,31.00
2022-10-30T01:54:20.383Z,30.00
2022-10-30T01:54:30.380Z,31.40
2022-10-30T01:54:40.379Z,31.50
2022-10-30T01:54:50.350Z,33.00
2022-10-30T01:55:00.371Z,32.60
2022-10-30T01:55:10.348Z,32.50
2022-10-30T01:55:20.367Z,32.10
2022-10-30T01:55:30.383Z,31.90
2022-10-30T01:55:40.379Z,31.80
2022-10-30T01:55:50.367Z,31.40
2022-10-30T01:56:00.382Z,31.40
2022-10-30T01:56:10.348Z,32.40
2022-10-30T01:56:20.346Z,33.00
2022-10-30T01:56:30.367Z,33.60
2022-10-30T01:56:40.349Z,33.30
2022-10-30T01:56:50.352Z,33.10
2022-10-30T01:57:00.352Z,33.50
2022-10-30T01:57:10.345Z,33.70
2022-10-30T01:57:20.378Z,33.40
2022-10-30T01:57:31.226Z,32.90
2022-10-30T01:57:41.166Z,33.10
2022-10-30T01:57:50.425Z,34.30
2022-10-30T01:58:00.344Z,35.10
2022-10-30T01:58:10.334Z,34.70
2022-10-30T01:58:20.357Z,33.80
2022-10-30T01:58:30.333Z,33.40
2022-10-30T01:58:40.342Z,32.60
2022-10-30T01:58:50.363Z,33.30
2022-10-30T01:59:00.389Z,32.90
2022-10-30T01:59:10.333Z,33.20
2022-10-30T01:59:20.348Z,31.80
2022-10-30T01:59:31.186Z,31.20
2022-10-30T01:59:40.363Z,32.00
2022-10-30T01:59:51.178Z,32.80
2022-10-30T02:00:00.349Z,33.10
2022-10-30T02:00:10.339Z,32.00
2022-10-30T02:00:20.344Z,31.20
2022-10-30T02:00:30.334Z,31.00
2022-10-30T02:00:40.351Z,31.40
2022-10-30T02:00:50.354Z,32.60
2022-10-30T02:01:00.375Z,33.60
2022-10-30T02:01:10.439Z,34.10
2022-10-30T02:01:20.452Z,33.80
2022-10-30T02:01:31.378Z,33.40
2022-10-30T02:01:40.490Z,32.50
2022-10-30T02:01:50.469Z,32.00
2022-10-30T02:02:00.583Z,32.80
2022-10-30T02:02:10.532Z,33.40
2022-10-30T02:02:20.530Z,34.30
2022-10-30T02:02:31.314Z,32.60
2022-10-30T02:02:41.325Z,32.00
2022-10-30T02:02:50.400Z,31.50
2022-10-30T02:03:01.152Z,32.60
2022-10-30T02:03:10.347Z,32.90
2022-10-30T02:03:20.325Z,34.00
2022-10-30T02:03:30.331Z,34.00
2022-10-30T02:03:40.350Z,34.10
2022-10-30T02:03:50.464Z,33.60
2022-10-30T02:04:01.186Z,33.20
2022-10-30T02:04:10.335Z,33.60
2022-10-30T02:04:20.322Z,32.60
2022-10-30T02:04:30.328Z,32.70
2022-10-30T02:04:40.317Z,32.20
2022-10-30T02:04:50.326Z,33.30
2022-10-30T02:05:00.324Z,34.00
2022-10-30T02:05:10.400Z,33.80
2022-10-30T02:05:20.306Z,35.20
2022-10-30T02:05:30.325Z,34.30
2022-10-30T02:05:40.315Z,34.50
2022-10-30T02:05:50.307Z,33.50
2022-10-30T02:06:00.342Z,32.30
2022-10-30T02:06:11.222Z,32.40
2022-10-30T02:06:20.342Z,31.50
2022-10-30T02:06:30.336Z,31.90
2022-10-30T02:06:40.302Z,31.40
2022-10-30T02:06:50.305Z,31.00
2022-10-30T02:07:00.324Z,31.50
2022-10-30T02:07:10.315Z,32.70
2022-10-30T02:07:20.310Z,32.90
2022-10-30T02:07:30.294Z,33.60
2022-10-30T02:07:40.312Z,32.20
2022-10-30T02:07:51.186Z,31.80
2022-10-30T02:08:00.627Z,31.20
2022-10-30T02:08:10.706Z,32.00
2022-10-30T02:08:20.298Z,32.00
2022-10-30T02:08:30.291Z,31.80
2022-10-30T02:08:40.414Z,31.80
2022-10-30T02:08:50.302Z,32.30
2022-10-30T02:09:00.291Z,33.20
2022-10-30T02:09:10.294Z,32.00
2022-10-30T02:09:20.305Z,32.20
2022-10-30T02:09:30.387Z,31.50